KFMH

Cape Cod Coast Guard Air Station Airport

Falmouth, Massachusetts, USA
METAR KFMH 161015Z AUTO 29013KT 10SM CLR M06/M09 A2986 RMK AO2
Observed Flight Rules
Dec-16 @ 10:15 UTC (32 minutes ago) Visual Flight Rules
Wind Visibility Clouds
290° at 13 knots 10 miles
  • Clear skies
Temperatures Readings
Current -6°C / 21°F
Dewpoint -9°C / 16°F
Humidity 80%
Altimeter 29.86" Hg
Pressure 1011 hPa
Elevation 40
METAR KFMH 161015Z AUTO 29013KT 10SM CLR M06/M09 A2986 RMK AO2
Observed Flight Rules
Dec-16 @ 10:15 UTC
(32 minutes ago)
VFR
Wind Visibility
290° at 13 knots 10 miles
Clouds
  • Clear skies
Temperature Dewpoint
-6°C / 21°F -9°C / 16°F
Humidity Altimeter Pressure
80% 29.86" Hg 1011 hPa